Time;durP1;ratioP1;P1;durP2;ratioP2;P2;SDS_P1;SDS_P2;PMS_P1;PMS_P2;Temp;Humidity;BMP_temperature;BMP_pressure;BME280_temperature;BME280_humidity;BME280_pressure;Samples;Min_cycle;Max_cycle;Signal;HPM_P1;HPM_P2
2023/06/02 00:00:23;;;;;;;10.43;3.20;;;12.70;99.90;;;;;;5066325;28;20688;-84
2023/06/02 00:02:51;;;;;;;10.00;3.53;;;12.60;99.90;;;;;;5051314;28;20232;-86
2023/06/02 00:05:19;;;;;;;6.73;3.00;;;12.70;99.90;;;;;;5067920;28;20219;-85
2023/06/02 00:07:46;;;;;;;10.17;3.37;;;12.50;99.90;;;;;;5065089;28;20203;-83
2023/06/02 00:10:13;;;;;;;5.87;2.43;;;12.50;99.90;;;;;;5064688;28;20208;-84
2023/06/02 00:12:41;;;;;;;18.70;3.47;;;12.50;99.90;;;;;;5046282;28;20220;-83
2023/06/02 00:15:11;;;;;;;11.57;3.20;;;12.50;99.90;;;;;;5066346;28;20204;-83
2023/06/02 00:17:38;;;;;;;11.70;3.40;;;12.50;99.90;;;;;;5063221;28;20712;-84
2023/06/02 00:20:07;;;;;;;9.80;2.90;;;12.50;99.90;;;;;;5063389;28;20311;-85
2023/06/02 00:22:46;;;;;;;10.80;2.90;;;12.40;99.90;;;;;;5064388;28;20333;-84
2023/06/02 00:25:16;;;;;;;8.77;3.53;;;12.40;99.90;;;;;;5064476;28;20225;-83
2023/06/02 00:27:43;;;;;;;12.90;3.93;;;12.30;99.90;;;;;;5051522;28;20215;-86
2023/06/02 00:30:10;;;;;;;5.67;2.80;;;12.30;99.90;;;;;;5065815;28;20212;-84
2023/06/02 00:32:39;;;;;;;7.80;3.07;;;12.30;99.90;;;;;;5063012;28;20224;-85
2023/06/02 00:35:08;;;;;;;9.13;3.10;;;12.20;99.90;;;;;;5044271;28;20204;-85
2023/06/02 00:37:36;;;;;;;7.40;2.27;;;12.20;99.90;;;;;;5058861;28;20199;-85
2023/06/02 00:40:04;;;;;;;11.40;3.43;;;12.20;99.90;;;;;;5047199;28;20232;-84
2023/06/02 00:42:31;;;;;;;7.30;3.10;;;12.20;99.90;;;;;;5068736;28;20211;-85
2023/06/02 00:44:58;;;;;;;9.87;3.50;;;12.20;99.90;;;;;;5066172;28;20583;-85
2023/06/02 00:47:25;;;;;;;5.63;2.80;;;12.30;99.90;;;;;;5061769;28;20282;-83
2023/06/02 00:49:53;;;;;;;12.17;3.30;;;12.20;99.90;;;;;;5063128;28;20208;-84
2023/06/02 00:52:20;;;;;;;6.67;2.90;;;12.20;99.90;;;;;;5057058;28;20279;-85
2023/06/02 00:54:47;;;;;;;8.27;2.90;;;12.20;99.90;;;;;;5063289;28;20239;-83
2023/06/02 00:57:14;;;;;;;7.80;2.77;;;12.10;99.90;;;;;;5061785;28;20212;-85
2023/06/02 00:59:41;;;;;;;9.40;2.93;;;12.20;99.90;;;;;;5065948;28;20231;-83
2023/06/02 01:02:08;;;;;;;12.27;3.60;;;12.20;99.90;;;;;;5050837;28;20231;-85
2023/06/02 01:04:36;;;;;;;12.07;3.23;;;12.20;99.90;;;;;;5064246;28;20231;-85
2023/06/02 01:07:06;;;;;;;12.63;2.83;;;12.10;99.90;;;;;;5070930;28;20604;-84
2023/06/02 01:09:35;;;;;;;9.77;3.07;;;12.10;99.90;;;;;;5059179;28;20212;-84
2023/06/02 01:12:02;;;;;;;9.47;2.90;;;12.00;99.90;;;;;;5062658;28;20222;-83
2023/06/02 01:14:29;;;;;;;5.40;2.63;;;12.00;99.90;;;;;;5061481;28;20215;-85
2023/06/02 01:16:56;;;;;;;7.00;2.57;;;12.00;99.90;;;;;;5051033;28;20212;-84
2023/06/02 01:19:26;;;;;;;6.77;2.67;;;12.10;99.90;;;;;;5049630;28;20237;-84
2023/06/02 01:22:03;;;;;;;6.27;2.60;;;12.10;99.90;;;;;;5066466;28;20299;-84
2023/06/02 01:24:40;;;;;;;4.97;2.53;;;12.10;99.90;;;;;;5061139;28;20219;-83
2023/06/02 01:27:09;;;;;;;12.80;2.80;;;12.10;99.90;;;;;;5061293;28;20258;-84
2023/06/02 01:29:36;;;;;;;7.43;2.63;;;12.00;99.90;;;;;;5050159;28;20244;-85
2023/06/02 01:32:20;;;;;;;9.83;2.67;;;12.00;99.90;;;;;;5046660;28;20223;-85
2023/06/02 01:35:03;;;;;;;5.47;2.20;;;12.00;99.90;;;;;;5049913;28;20211;-83
2023/06/02 01:37:32;;;;;;;5.87;2.20;;;12.10;99.90;;;;;;5060525;28;20230;-84
2023/06/02 01:40:03;;;;;;;5.10;2.50;;;12.00;99.90;;;;;;5046138;28;20779;-84
2023/06/02 01:42:33;;;;;;;8.83;2.70;;;12.00;99.90;;;;;;5065521;28;20211;-85
2023/06/02 01:45:03;;;;;;;6.63;2.40;;;12.00;99.90;;;;;;5063733;28;20676;-84
2023/06/02 01:47:30;;;;;;;10.97;3.50;;;12.00;99.90;;;;;;5020478;28;20889;-85
2023/06/02 01:49:59;;;;;;;8.33;2.90;;;12.10;99.90;;;;;;5019712;28;20239;-85
2023/06/02 01:52:28;;;;;;;7.67;2.33;;;12.00;99.90;;;;;;5023857;28;20218;-83
2023/06/02 01:54:55;;;;;;;8.17;2.50;;;12.00;99.90;;;;;;5020328;28;20209;-83
2023/06/02 01:57:22;;;;;;;7.53;2.80;;;12.00;99.90;;;;;;5025279;28;20281;-83
2023/06/02 01:59:49;;;;;;;6.47;2.40;;;12.10;99.90;;;;;;5021179;28;20257;-84
2023/06/02 02:02:17;;;;;;;10.83;2.43;;;12.10;99.90;;;;;;5019261;28;20765;-83
2023/06/02 02:04:45;;;;;;;5.20;2.50;;;12.00;99.90;;;;;;5019543;28;20236;-84
2023/06/02 02:07:12;;;;;;;6.60;2.83;;;12.00;99.90;;;;;;5023280;28;20710;-84
2023/06/02 02:09:42;;;;;;;7.53;2.83;;;12.00;99.90;;;;;;5018816;28;20276;-83
2023/06/02 02:12:09;;;;;;;5.80;2.40;;;11.90;99.90;;;;;;5019566;28;20213;-84
2023/06/02 02:14:36;;;;;;;9.23;2.57;;;11.90;99.90;;;;;;5023290;28;20217;-84
2023/06/02 02:17:03;;;;;;;9.87;2.50;;;12.00;99.90;;;;;;5020563;28;20682;-84
2023/06/02 02:19:31;;;;;;;7.37;2.57;;;11.90;99.90;;;;;;5024083;28;20596;-83
2023/06/02 02:21:58;;;;;;;13.30;3.60;;;11.90;99.90;;;;;;5027538;28;20839;-85
2023/06/02 02:24:26;;;;;;;8.23;2.70;;;11.90;99.90;;;;;;5024841;28;20216;-84
2023/06/02 02:26:57;;;;;;;11.37;2.37;;;11.90;99.90;;;;;;5026236;28;20270;-86
2023/06/02 02:29:24;;;;;;;9.53;2.80;;;11.90;99.90;;;;;;5020794;28;20274;-84
2023/06/02 02:31:54;;;;;;;7.90;2.47;;;12.00;99.90;;;;;;5015432;28;20228;-85
2023/06/02 02:34:24;;;;;;;8.00;2.27;;;11.80;99.90;;;;;;5022911;28;20227;-84
2023/06/02 02:36:51;;;;;;;7.30;2.33;;;11.80;99.90;;;;;;5023895;28;20205;-84
2023/06/02 02:39:20;;;;;;;5.57;2.30;;;11.80;99.90;;;;;;5021537;28;20228;-84
2023/06/02 02:41:49;;;;;;;8.20;2.67;;;11.80;99.90;;;;;;5025222;28;20760;-82
2023/06/02 02:44:16;;;;;;;5.97;2.53;;;11.80;99.90;;;;;;5022866;28;20205;-83
2023/06/02 02:46:43;;;;;;;7.30;2.20;;;11.80;99.90;;;;;;5044124;28;20242;-84
2023/06/02 02:49:10;;;;;;;7.70;2.23;;;11.90;99.90;;;;;;5062523;28;20703;-84
2023/06/02 02:51:37;;;;;;;8.50;2.30;;;11.80;99.90;;;;;;5060606;28;20929;-84
2023/06/02 02:54:05;;;;;;;11.87;2.37;;;11.90;99.90;;;;;;5050575;28;20253;-84
2023/06/02 02:56:32;;;;;;;7.70;2.77;;;11.90;99.90;;;;;;5062873;28;20210;-85
2023/06/02 02:58:59;;;;;;;13.30;2.60;;;11.90;99.90;;;;;;5063313;28;20223;-84
2023/06/02 03:01:26;;;;;;;9.67;3.17;;;11.90;99.90;;;;;;5062664;28;20291;-86
2023/06/02 03:03:53;;;;;;;6.43;2.40;;;11.90;99.90;;;;;;5048716;28;20232;-86
2023/06/02 03:06:28;;;;;;;8.10;2.87;;;11.90;99.90;;;;;;5063176;28;20691;-83
2023/06/02 03:08:55;;;;;;;12.50;2.90;;;11.90;99.90;;;;;;5046399;28;20214;-83
2023/06/02 03:11:22;;;;;;;7.23;2.50;;;11.80;99.90;;;;;;5060222;28;20520;-84
2023/06/02 03:13:49;;;;;;;7.27;2.50;;;11.90;99.90;;;;;;5058894;28;20211;-85
2023/06/02 03:16:21;;;;;;;11.47;2.80;;;11.90;99.90;;;;;;5065882;28;20242;-84
2023/06/02 03:18:48;;;;;;;5.17;2.20;;;12.00;99.90;;;;;;5062358;28;20203;-83
2023/06/02 03:21:17;;;;;;;6.70;2.13;;;11.90;99.90;;;;;;5065374;28;20208;-86
2023/06/02 03:23:44;;;;;;;10.10;2.90;;;12.00;99.90;;;;;;5048420;28;20219;-85
2023/06/02 03:26:12;;;;;;;8.63;3.00;;;12.00;99.90;;;;;;5063640;28;20778;-83
2023/06/02 03:28:41;;;;;;;8.53;2.23;;;12.00;99.90;;;;;;5051646;28;20212;-85
2023/06/02 03:31:11;;;;;;;7.13;2.27;;;11.90;99.90;;;;;;5045015;28;20365;-84
2023/06/02 03:33:38;;;;;;;11.23;2.20;;;11.90;99.90;;;;;;5060101;28;20223;-84
2023/06/02 03:36:07;;;;;;;5.60;2.00;;;12.00;99.90;;;;;;5061514;28;20298;-83
2023/06/02 03:38:34;;;;;;;6.63;2.27;;;11.90;99.90;;;;;;5063141;28;20203;-83
2023/06/02 03:41:01;;;;;;;7.07;3.10;;;11.80;99.90;;;;;;5048917;28;20596;-84
2023/06/02 03:43:30;;;;;;;8.60;2.77;;;11.90;99.90;;;;;;5056308;28;20217;-85
2023/06/02 03:45:57;;;;;;;14.40;2.90;;;11.90;99.90;;;;;;5062042;28;20262;-84
2023/06/02 03:48:27;;;;;;;11.10;2.17;;;11.90;99.90;;;;;;5056555;28;20216;-84
2023/06/02 03:50:54;;;;;;;7.20;2.13;;;11.90;99.90;;;;;;5045358;28;20560;-84
2023/06/02 03:53:21;;;;;;;6.47;1.80;;;11.90;99.90;;;;;;5061446;28;20853;-85
2023/06/02 03:55:49;;;;;;;8.17;2.50;;;11.90;99.90;;;;;;5047309;28;20684;-85
2023/06/02 03:58:17;;;;;;;5.70;2.00;;;11.90;99.90;;;;;;5063872;28;20209;-85
2023/06/02 04:00:44;;;;;;;5.93;2.10;;;11.90;99.90;;;;;;5061895;28;20319;-84
2023/06/02 04:03:12;;;;;;;11.73;2.33;;;12.00;99.90;;;;;;5060734;28;20218;-86
2023/06/02 04:05:39;;;;;;;5.60;2.00;;;11.90;99.90;;;;;;5068414;28;20253;-86
2023/06/02 04:08:09;;;;;;;8.80;2.10;;;12.00;99.90;;;;;;5046127;28;20224;-85
2023/06/02 04:10:43;;;;;;;6.33;2.00;;;12.00;99.90;;;;;;5063633;28;20211;-84
2023/06/02 04:13:13;;;;;;;7.83;2.20;;;12.00;99.90;;;;;;5058585;28;20204;-87
2023/06/02 04:15:40;;;;;;;13.43;2.80;;;12.00;99.90;;;;;;5065325;28;20753;-85
2023/06/02 04:18:07;;;;;;;9.53;2.10;;;12.00;99.90;;;;;;5049044;28;20215;-86
2023/06/02 04:20:37;;;;;;;10.03;2.20;;;12.00;99.90;;;;;;5049814;28;20232;-85
2023/06/02 04:23:04;;;;;;;8.80;2.50;;;12.00;99.90;;;;;;5052949;28;20200;-83
2023/06/02 04:25:32;;;;;;;10.30;2.40;;;12.00;99.90;;;;;;5047838;28;20196;-85
2023/06/02 04:28:02;;;;;;;8.63;1.70;;;12.00;99.90;;;;;;5062751;28;20243;-85
2023/06/02 04:30:29;;;;;;;16.13;2.20;;;12.00;99.90;;;;;;5050434;28;20331;-85
2023/06/02 04:32:56;;;;;;;11.27;2.10;;;12.10;99.90;;;;;;5050470;28;20281;-85
2023/06/02 04:35:23;;;;;;;10.37;1.80;;;12.10;99.90;;;;;;5065643;28;20207;-84
2023/06/02 04:37:53;;;;;;;11.23;2.10;;;12.10;99.90;;;;;;5064144;28;20215;-86
2023/06/02 04:40:20;;;;;;;7.73;1.73;;;12.20;99.90;;;;;;5053029;28;20310;-86
2023/06/02 04:42:49;;;;;;;7.47;2.23;;;12.20;99.90;;;;;;5069421;28;21105;-86
2023/06/02 04:45:29;;;;;;;11.67;2.70;;;12.20;99.90;;;;;;5071191;28;20211;-84
2023/06/02 04:47:56;;;;;;;9.80;2.27;;;12.30;99.90;;;;;;5055106;28;20835;-88
2023/06/02 04:50:27;;;;;;;7.10;2.07;;;12.30;99.90;;;;;;5061437;28;20570;-84
2023/06/02 04:52:56;;;;;;;8.80;2.10;;;12.40;99.90;;;;;;5072173;28;20737;-87
2023/06/02 04:55:23;;;;;;;9.90;2.03;;;12.40;99.90;;;;;;5068551;28;20207;-85
2023/06/02 04:57:53;;;;;;;6.33;2.00;;;12.30;99.90;;;;;;5051635;28;20205;-85
2023/06/02 05:00:29;;;;;;;9.07;2.20;;;12.50;99.90;;;;;;5058637;28;20748;-86
2023/06/02 05:02:58;;;;;;;8.00;2.43;;;12.50;99.90;;;;;;5070126;28;20322;-85
2023/06/02 05:05:38;;;;;;;7.87;1.80;;;12.50;99.90;;;;;;5059359;28;20224;-87
2023/06/02 05:08:21;;;;;;;9.30;2.20;;;12.50;99.90;;;;;;5064238;28;20280;-90
2023/06/02 05:14:46;;;;;;;;;;;;;;;;;;;;;
2023/06/02 05:17:26;;;;;;;10.83;2.30;;;12.60;99.90;;;;;;4998184;28;20582;-86
2023/06/02 05:20:14;;;;;;;9.73;2.07;;;12.60;99.90;;;;;;5041617;28;20873;-89
2023/06/02 05:22:55;;;;;;;14.50;1.97;;;12.70;99.90;;;;;;5061782;28;20200;-87
2023/06/02 05:25:30;;;;;;;8.37;2.30;;;12.80;99.90;;;;;;5059575;28;20204;-85
2023/06/02 05:28:12;;;;;;;5.70;1.90;;;12.70;99.90;;;;;;5067374;28;20180;-89
2023/06/02 05:31:03;;;;;;;8.70;2.10;;;12.80;99.90;;;;;;5068262;28;20558;-87
2023/06/02 05:33:34;;;;;;;6.27;2.20;;;12.80;99.90;;;;;;5081956;28;20215;-85
2023/06/02 05:36:02;;;;;;;8.10;1.97;;;12.80;99.90;;;;;;5084598;28;20204;-87
2023/06/02 05:38:31;;;;;;;9.47;2.27;;;12.90;99.90;;;;;;5082975;28;20641;-84
2023/06/02 05:40:58;;;;;;;5.80;1.83;;;13.00;99.90;;;;;;5062543;28;20282;-85
2023/06/02 05:43:25;;;;;;;7.57;2.10;;;13.00;99.90;;;;;;5064393;28;20219;-85
2023/06/02 05:45:52;;;;;;;8.57;1.67;;;13.00;99.90;;;;;;5086780;28;20278;-88
2023/06/02 05:48:20;;;;;;;8.83;2.00;;;13.00;99.90;;;;;;5085733;28;20212;-85
2023/06/02 05:50:47;;;;;;;9.07;2.43;;;13.00;99.90;;;;;;5063226;28;20743;-86
2023/06/02 05:53:22;;;;;;;9.57;2.20;;;13.00;99.90;;;;;;5074994;28;20218;-88
2023/06/02 05:55:54;;;;;;;5.60;1.93;;;13.00;99.90;;;;;;5063581;28;20200;-87
2023/06/02 05:58:29;;;;;;;3.80;1.60;;;13.00;99.90;;;;;;5061340;28;20208;-87
2023/06/02 06:00:59;;;;;;;10.23;2.23;;;13.00;99.90;;;;;;5078175;28;20232;-85
2023/06/02 06:03:32;;;;;;;11.63;2.20;;;13.20;99.90;;;;;;5052175;28;20710;-86
2023/06/02 06:06:04;;;;;;;10.53;2.00;;;13.00;99.90;;;;;;5080640;28;20231;-87
2023/06/02 06:08:33;;;;;;;10.33;2.40;;;13.00;99.90;;;;;;5059827;28;20306;-80
2023/06/02 06:11:03;;;;;;;7.20;1.97;;;13.00;99.90;;;;;;5083456;28;20676;-85
2023/06/02 06:13:30;;;;;;;10.30;1.87;;;13.10;99.90;;;;;;5086397;28;20214;-86
2023/06/02 06:15:57;;;;;;;12.90;3.33;;;13.20;99.90;;;;;;5083001;28;20255;-86
2023/06/02 06:18:25;;;;;;;9.57;2.10;;;13.20;99.90;;;;;;5078486;28;20215;-84
2023/06/02 06:20:52;;;;;;;7.47;2.30;;;13.30;99.90;;;;;;5064073;28;20845;-84
2023/06/02 06:23:19;;;;;;;10.07;2.07;;;13.30;99.90;;;;;;5064771;28;20204;-85
2023/06/02 06:25:47;;;;;;;7.67;2.00;;;13.30;99.90;;;;;;5065148;28;20216;-85
2023/06/02 06:28:14;;;;;;;8.80;2.33;;;13.30;99.90;;;;;;5084440;28;20200;-83
2023/06/02 06:30:42;;;;;;;10.67;1.90;;;13.20;99.90;;;;;;5084128;28;20204;-84
2023/06/02 06:33:09;;;;;;;7.80;2.00;;;13.30;99.90;;;;;;5062524;28;20226;-86
2023/06/02 06:35:37;;;;;;;8.00;2.17;;;13.40;99.90;;;;;;5073067;28;20191;-86
2023/06/02 06:38:10;;;;;;;10.77;2.30;;;13.30;99.90;;;;;;5070624;28;20196;-88
2023/06/02 06:40:37;;;;;;;9.30;2.27;;;13.40;99.90;;;;;;5066851;28;20228;-86
2023/06/02 06:43:06;;;;;;;8.73;2.17;;;13.40;99.90;;;;;;5064503;28;20193;-87
2023/06/02 06:45:49;;;;;;;9.90;2.10;;;13.30;99.90;;;;;;5058266;28;20207;-90
2023/06/02 06:48:18;;;;;;;8.60;2.10;;;13.40;99.90;;;;;;5080030;28;20311;-85
2023/06/02 06:50:48;;;;;;;9.40;2.10;;;13.50;99.90;;;;;;5062563;28;20308;-89
2023/06/02 06:53:17;;;;;;;6.43;2.33;;;13.60;99.90;;;;;;5060618;28;20223;-88
2023/06/02 06:55:45;;;;;;;11.73;2.50;;;13.60;99.90;;;;;;5064958;28;20196;-88
2023/06/02 06:58:15;;;;;;;12.47;2.13;;;13.60;99.90;;;;;;5077829;28;20204;-87
2023/06/02 07:00:42;;;;;;;13.40;2.80;;;13.70;99.90;;;;;;5058101;28;20712;-86
2023/06/02 07:03:12;;;;;;;9.20;2.37;;;13.70;99.90;;;;;;5058308;28;20218;-87
2023/06/02 07:05:44;;;;;;;9.23;2.33;;;13.80;99.90;;;;;;5076456;28;20281;-87
2023/06/02 07:08:12;;;;;;;13.40;2.30;;;13.80;99.90;;;;;;5074566;28;20225;-86
2023/06/02 07:10:40;;;;;;;5.97;2.10;;;13.90;99.90;;;;;;5080058;28;20220;-87
2023/06/02 07:13:15;;;;;;;5.40;2.50;;;14.00;99.90;;;;;;5058680;28;20212;-85
2023/06/02 07:15:56;;;;;;;7.63;1.87;;;14.10;99.90;;;;;;5073649;28;20199;-92
2023/06/02 07:18:25;;;;;;;9.27;2.30;;;14.00;99.90;;;;;;5066011;28;20235;-88
2023/06/02 07:20:52;;;;;;;7.80;2.33;;;14.00;99.90;;;;;;5066884;28;20230;-88
2023/06/02 07:23:25;;;;;;;11.93;2.33;;;14.10;99.90;;;;;;5064628;28;20211;-93
2023/06/02 07:25:55;;;;;;;8.70;2.30;;;14.10;99.90;;;;;;5069081;28;20208;-90
2023/06/02 07:28:22;;;;;;;8.13;2.30;;;14.10;99.90;;;;;;5067456;28;20204;-89
2023/06/02 07:31:05;;;;;;;10.83;2.57;;;14.10;99.90;;;;;;5068664;28;20235;-86
2023/06/02 07:33:37;;;;;;;11.87;2.37;;;14.10;99.90;;;;;;5072995;28;20204;-86
2023/06/02 07:36:04;;;;;;;9.73;2.40;;;13.90;99.90;;;;;;5057371;28;20216;-89
2023/06/02 07:38:34;;;;;;;10.47;3.03;;;14.10;99.90;;;;;;5059781;28;20257;-90
2023/06/02 07:41:02;;;;;;;10.40;2.40;;;14.10;99.90;;;;;;5055818;28;20717;-93
2023/06/02 07:43:29;;;;;;;10.03;2.50;;;14.20;99.90;;;;;;5057559;28;20201;-89
2023/06/02 07:45:56;;;;;;;11.40;2.40;;;14.40;99.90;;;;;;5054208;28;20224;-90
2023/06/02 07:48:23;;;;;;;7.87;2.60;;;14.30;99.90;;;;;;5070791;28;20579;-88
2023/06/02 07:50:52;;;;;;;6.57;2.80;;;14.30;99.90;;;;;;5084133;28;20216;-90
2023/06/02 07:53:19;;;;;;;11.63;3.57;;;14.40;99.90;;;;;;5068092;28;20494;-87
2023/06/02 07:55:50;;;;;;;7.40;2.60;;;14.40;99.90;;;;;;5070379;28;20943;-89
2023/06/02 07:58:23;;;;;;;8.80;2.33;;;14.50;99.90;;;;;;5065132;28;20196;-85
2023/06/02 08:00:50;;;;;;;9.87;2.83;;;14.80;99.90;;;;;;5072463;28;20287;-86
2023/06/02 08:03:25;;;;;;;6.67;2.47;;;14.90;99.90;;;;;;5058346;28;20239;-91
2023/06/02 08:05:59;;;;;;;9.00;2.50;;;14.90;99.90;;;;;;5074586;28;20663;-89
2023/06/02 08:08:28;;;;;;;16.83;4.30;;;15.00;99.90;;;;;;5061915;28;20223;-88
2023/06/02 08:10:57;;;;;;;13.23;3.07;;;15.30;99.90;;;;;;5061269;28;20205;-86
2023/06/02 08:13:34;;;;;;;11.13;3.10;;;15.40;99.90;;;;;;5082841;28;20261;-89
2023/06/02 08:16:06;;;;;;;5.47;2.57;;;15.60;99.90;;;;;;5064938;28;20566;-86
2023/06/02 08:18:36;;;;;;;9.13;3.33;;;15.70;99.90;;;;;;5061011;28;20208;-87
2023/06/02 08:21:06;;;;;;;9.32;2.70;;;15.80;99.90;;;;;;5068711;28;20224;-87
2023/06/02 08:23:36;;;;;;;12.00;3.08;;;15.90;99.90;;;;;;5056193;28;20326;-87
2023/06/02 08:26:03;;;;;;;9.05;2.80;;;16.00;99.90;;;;;;5052570;28;20216;-89
2023/06/02 08:28:34;;;;;;;9.70;2.53;;;16.10;99.90;;;;;;5059489;28;20548;-87
2023/06/02 08:31:04;;;;;;;11.10;2.95;;;16.10;99.90;;;;;;5061994;28;20229;-89
2023/06/02 08:33:33;;;;;;;11.45;3.15;;;16.10;99.90;;;;;;5076300;28;20240;-87
2023/06/02 08:36:03;;;;;;;6.50;2.72;;;16.10;99.90;;;;;;5063217;28;20218;-89
2023/06/02 08:38:36;;;;;;;9.32;3.03;;;16.10;99.90;;;;;;5064618;28;20216;-91
2023/06/02 08:41:10;;;;;;;11.85;2.85;;;16.00;99.90;;;;;;5063682;28;20305;-89
2023/06/02 08:43:45;;;;;;;10.20;3.25;;;16.00;99.90;;;;;;5062567;28;20204;-90
2023/06/02 08:46:15;;;;;;;8.05;3.00;;;16.10;99.90;;;;;;5057907;28;20220;-89
2023/06/02 08:48:45;;;;;;;7.97;2.90;;;16.10;99.90;;;;;;5059557;28;20225;-86
2023/06/02 08:51:22;;;;;;;8.43;2.72;;;16.20;99.90;;;;;;5059904;28;20288;-89
2023/06/02 08:53:52;;;;;;;13.93;3.08;;;16.30;99.90;;;;;;5061975;28;20196;-88
2023/06/02 08:56:23;;;;;;;7.15;2.83;;;16.40;99.90;;;;;;5055240;28;20650;-91
2023/06/02 08:59:00;;;;;;;11.88;3.35;;;16.50;99.90;;;;;;5061841;28;20201;-89
2023/06/02 09:01:33;;;;;;;8.43;3.20;;;16.60;99.90;;;;;;5059806;28;20228;-90
2023/06/02 09:04:05;;;;;;;10.52;3.47;;;16.60;99.90;;;;;;5067378;28;20298;-92
2023/06/02 09:07:13;;;;;;;9.13;2.88;;;16.60;99.90;;;;;;5064087;28;20243;-90
2023/06/02 09:10:03;;;;;;;;;;;;;;;;;;;;;
2023/06/02 09:12:53;;;;;;;9.23;3.10;;;16.60;99.90;;;;;;5071405;28;20843;-87
2023/06/02 09:15:28;;;;;;;11.55;3.08;;;16.50;99.90;;;;;;5050635;28;20680;-86
2023/06/02 09:18:12;;;;;;;8.27;3.08;;;16.60;99.90;;;;;;5055690;28;20294;-88
2023/06/02 09:20:40;;;;;;;7.22;2.72;;;16.70;99.90;;;;;;5073879;28;20208;-87
2023/06/02 09:23:08;;;;;;;9.80;3.35;;;16.70;99.90;;;;;;5069439;28;20207;-86
2023/06/02 09:25:38;;;;;;;9.63;2.83;;;16.80;99.90;;;;;;5066573;28;20232;-85
2023/06/02 09:28:08;;;;;;;8.63;3.50;;;16.80;99.90;;;;;;5066759;28;20290;-88
2023/06/02 09:30:35;;;;;;;8.75;3.20;;;16.90;99.90;;;;;;5070597;28;20718;-87
2023/06/02 09:33:17;;;;;;;11.45;3.63;;;16.90;99.90;;;;;;5057787;28;20215;-88
2023/06/02 09:35:50;;;;;;;6.80;2.88;;;17.00;99.90;;;;;;5054772;28;20208;-86
2023/06/02 09:38:22;;;;;;;10.13;2.97;;;17.10;99.90;;;;;;5066192;28;20215;-87
2023/06/02 09:41:18;;;;;;;10.52;3.40;;;17.10;99.90;;;;;;5055805;28;20975;-86
2023/06/02 09:43:47;;;;;;;11.93;3.30;;;17.10;99.90;;;;;;5063475;28;20219;-88
2023/06/02 09:46:14;;;;;;;8.85;3.25;;;17.20;99.90;;;;;;5050841;28;20682;-86
2023/06/02 09:48:59;;;;;;;11.07;3.45;;;17.20;99.90;;;;;;5047915;28;20222;-89
2023/06/02 09:51:28;;;;;;;15.35;3.75;;;17.10;99.90;;;;;;5048583;28;20204;-86
2023/06/02 09:53:59;;;;;;;18.65;4.40;;;17.10;99.90;;;;;;5051234;28;20288;-90
2023/06/02 09:56:39;;;;;;;10.05;3.38;;;17.10;99.90;;;;;;5059450;28;20291;-88
2023/06/02 09:59:41;;;;;;;9.48;3.38;;;17.10;99.90;;;;;;5045696;28;20216;-88
2023/06/02 10:02:22;;;;;;;8.35;3.35;;;17.30;99.90;;;;;;5047759;28;20264;-88
2023/06/02 10:04:54;;;;;;;12.63;3.70;;;17.30;99.90;;;;;;5055189;28;20232;-88
2023/06/02 10:07:36;;;;;;;12.85;3.40;;;17.40;99.90;;;;;;5049853;28;20254;-85
2023/06/02 10:10:34;;;;;;;8.40;3.03;;;17.60;99.90;;;;;;5046405;28;20228;-84
2023/06/02 10:13:21;;;;;;;9.90;3.97;;;17.60;99.90;;;;;;5049362;28;20310;-85
2023/06/02 10:16:10;;;;;;;7.68;3.70;;;17.70;99.90;;;;;;5066742;28;20212;-85
2023/06/02 10:19:11;;;;;;;10.77;3.50;;;17.80;99.90;;;;;;5066580;28;20208;-87
2023/06/02 10:22:06;;;;;;;10.80;3.58;;;17.80;99.90;;;;;;5067854;28;20358;-87
2023/06/02 10:24:45;;;;;;;8.23;3.30;;;17.80;99.90;;;;;;5066441;28;20200;-86
2023/06/02 10:27:18;;;;;;;12.55;3.67;;;17.80;99.90;;;;;;5043137;28;20295;-85
2023/06/02 10:29:46;;;;;;;10.68;3.38;;;17.80;99.90;;;;;;5045580;28;20201;-83
2023/06/02 10:32:24;;;;;;;7.70;3.35;;;17.80;99.90;;;;;;5057270;28;20313;-84
2023/06/02 10:34:55;;;;;;;9.07;3.58;;;17.90;99.90;;;;;;5062125;28;20855;-84
2023/06/02 10:37:23;;;;;;;9.30;3.85;;;17.90;99.90;;;;;;5060790;28;20246;-86
2023/06/02 10:39:56;;;;;;;8.95;3.55;;;18.00;99.90;;;;;;5058552;28;20208;-85
2023/06/02 10:42:30;;;;;;;11.43;3.30;;;18.10;99.90;;;;;;5061697;28;20232;-82
2023/06/02 10:45:16;;;;;;;9.65;3.45;;;18.20;99.90;;;;;;5050972;28;20672;-86
2023/06/02 10:47:46;;;;;;;9.55;3.78;;;18.20;99.90;;;;;;5020793;28;20296;-84
2023/06/02 10:50:25;;;;;;;9.85;3.25;;;18.30;99.90;;;;;;5020230;28;20217;-85
2023/06/02 10:52:59;;;;;;;9.45;3.47;;;18.30;99.90;;;;;;5021532;28;20309;-85
2023/06/02 10:55:28;;;;;;;11.32;3.97;;;18.50;99.90;;;;;;5022929;28;20285;-87
2023/06/02 10:58:04;;;;;;;10.50;3.70;;;18.60;99.90;;;;;;5023120;28;20710;-87
2023/06/02 11:00:39;;;;;;;10.25;3.95;;;18.80;99.90;;;;;;5023562;28;20312;-87
2023/06/02 11:03:11;;;;;;;7.20;3.55;;;19.00;99.90;;;;;;5024323;28;20233;-88
2023/06/02 11:05:38;;;;;;;15.30;3.65;;;19.10;99.90;;;;;;5026372;28;20606;-86
2023/06/02 11:08:15;;;;;;;11.15;3.33;;;19.30;99.90;;;;;;5022119;28;20212;-85
2023/06/02 11:10:48;;;;;;;9.35;3.42;;;19.60;99.90;;;;;;5027161;28;20233;-86
2023/06/02 11:13:19;;;;;;;8.18;3.53;;;19.80;99.90;;;;;;5021145;28;20305;-84
2023/06/02 11:15:58;;;;;;;8.50;3.75;;;20.10;99.90;;;;;;5027076;28;20198;-86
2023/06/02 11:18:27;;;;;;;8.52;3.67;;;20.40;99.90;;;;;;5016847;28;20233;-85
2023/06/02 11:20:56;;;;;;;10.90;3.78;;;20.70;99.90;;;;;;5024340;28;20745;-88
2023/06/02 11:23:25;;;;;;;11.23;4.30;;;21.00;99.90;;;;;;5017804;28;20234;-86
2023/06/02 11:26:01;;;;;;;7.82;3.63;;;20.50;99.90;;;;;;5023857;28;20567;-85
2023/06/02 11:28:29;;;;;;;9.65;3.90;;;20.70;99.90;;;;;;5023417;28;20233;-85
2023/06/02 11:31:08;;;;;;;11.60;3.95;;;20.80;99.90;;;;;;5019082;28;20256;-86
2023/06/02 11:33:38;;;;;;;12.32;4.22;;;20.70;99.90;;;;;;5024491;28;20260;-86
2023/06/02 11:36:09;;;;;;;11.52;4.45;;;20.60;99.90;;;;;;5020457;28;20275;-86
2023/06/02 11:38:39;;;;;;;13.10;4.60;;;20.70;99.90;;;;;;5022209;28;20233;-82
2023/06/02 11:41:11;;;;;;;9.57;3.95;;;20.80;99.90;;;;;;5027905;28;20682;-88
2023/06/02 11:43:45;;;;;;;10.52;5.72;;;20.80;99.90;;;;;;5025038;28;20605;-84
2023/06/02 11:46:19;;;;;;;11.65;4.57;;;20.80;99.90;;;;;;5028634;28;20709;-89
2023/06/02 11:49:04;;;;;;;;;;;;;;;;;;;;;
2023/06/02 11:51:48;;;;;;;9.55;4.10;;;21.00;99.90;;;;;;5072402;28;20212;-93
2023/06/02 11:54:19;;;;;;;11.48;4.30;;;21.10;99.90;;;;;;5055675;28;20207;-87
2023/06/02 11:56:52;;;;;;;12.98;4.25;;;21.10;99.90;;;;;;5054980;28;20227;-88
2023/06/02 11:59:28;;;;;;;10.52;4.50;;;21.20;99.90;;;;;;5051744;28;20208;-89
2023/06/02 12:02:00;;;;;;;10.70;4.30;;;21.70;99.90;;;;;;5048676;28;20225;-90
2023/06/02 12:05:15;;;;;;;9.65;4.63;;;21.80;99.90;;;;;;5059864;28;20224;-90
2023/06/02 12:08:08;;;;;;;9.35;4.45;;;22.90;99.90;;;;;;5064333;28;20204;-89
2023/06/02 12:10:51;;;;;;;14.15;4.25;;;21.70;99.90;;;;;;5040011;28;20263;-92
2023/06/02 12:14:01;;;;;;;14.80;4.78;;;21.70;99.90;;;;;;5075702;28;20227;-90
2023/06/02 12:20:51;;;;;;;9.13;3.67;;;21.10;99.90;;;;;;5069327;28;20216;-91
2023/06/02 12:23:48;;;;;;;15.82;4.00;;;21.70;99.90;;;;;;5054764;28;20220;-91
2023/06/02 12:26:28;;;;;;;13.88;4.43;;;22.00;99.90;;;;;;5057287;28;20208;-90
2023/06/02 12:29:39;;;;;;;10.43;4.22;;;22.80;99.90;;;;;;5057730;28;20212;-91
2023/06/02 12:32:47;;;;;;;10.50;4.13;;;22.50;99.90;;;;;;5041139;28;20208;-89
2023/06/02 12:35:25;;;;;;;12.45;4.28;;;22.50;99.90;;;;;;5055256;28;20205;-88
2023/06/02 12:37:52;;;;;;;15.02;4.80;;;22.60;99.90;;;;;;5049618;28;20248;-86
2023/06/02 12:40:20;;;;;;;11.88;4.32;;;22.50;99.90;;;;;;5051315;28;20586;-82
2023/06/02 12:42:46;;;;;;;11.68;4.60;;;22.60;99.90;;;;;;5059465;28;20232;-84
2023/06/02 12:45:13;;;;;;;8.20;3.70;;;22.80;99.90;;;;;;5068572;28;20217;-84
2023/06/02 12:47:41;;;;;;;12.75;5.35;;;22.90;99.90;;;;;;5062605;28;20238;-87
2023/06/02 12:50:08;;;;;;;10.40;4.10;;;23.00;99.90;;;;;;5063054;28;20258;-82
2023/06/02 12:52:36;;;;;;;12.45;4.60;;;23.10;99.90;;;;;;5058285;28;20204;-87
2023/06/02 12:55:04;;;;;;;10.73;4.47;;;23.20;99.90;;;;;;5062977;28;20224;-82
2023/06/02 12:57:40;;;;;;;9.15;4.05;;;23.20;99.90;;;;;;5064647;28;20249;-85
2023/06/02 13:00:11;;;;;;;8.50;4.03;;;23.20;99.90;;;;;;5045460;28;20216;-84
2023/06/02 13:02:40;;;;;;;12.93;4.00;;;23.40;99.90;;;;;;5057437;28;20232;-84
2023/06/02 13:05:09;;;;;;;7.53;3.75;;;23.60;99.90;;;;;;5042831;28;20223;-84
2023/06/02 13:07:41;;;;;;;9.13;3.72;;;23.70;99.90;;;;;;5049546;28;20204;-88
2023/06/02 13:10:16;;;;;;;13.60;4.45;;;24.10;99.90;;;;;;5049244;28;20246;-87
2023/06/02 13:12:45;;;;;;;13.85;3.92;;;24.40;99.90;;;;;;5051381;28;20236;-88
2023/06/02 13:15:12;;;;;;;9.30;4.60;;;24.70;99.90;;;;;;5052469;28;20196;-83
2023/06/02 13:17:42;;;;;;;12.45;4.88;;;;;;;;;;5061970;28;20685;-85